Burris, Wyoming
Current Conditions -  °F | °C
As of 2:13 PM on Monday 22 Dec 2014 (Local Time) from KRIW Reporting Station
Overcast Overcast  
Wind Chill: 23°   Ceiling: 10000
Heat Index: 32°   Visibility: 10mi
Dew Point: 23°   Wind: 13mph
Humidity: 69%   Direction: 20°NNE
Pressure: 29.81"   Gusts: NA
Location:  43.3953°N, 109.121°W
Report Text: KRIW 222113Z AUTO 02011KT 10SM OVC100 00/M05 A2981 RMK AO2 WSHFT 2053 T00001050
Loading
Personal Weather Stations






























Interactive Weather Map New forecast layout! Learn more

10-Day Weather Forecast

Advertisements
Track Severe Weather on mobile